createdAt,value
2018-02-15T00:00:26.237Z,57.80
2018-02-15T00:02:53.837Z,57.30
2018-02-15T00:05:22.206Z,56.70
2018-02-15T00:07:49.806Z,56.60
2018-02-15T00:10:17.374Z,57.00
2018-02-15T00:12:44.970Z,56.80
2018-02-15T00:15:12.595Z,56.90
2018-02-15T00:17:40.254Z,56.60
2018-02-15T00:20:07.841Z,56.90
2018-02-15T00:22:35.471Z,56.90
2018-02-15T00:25:03.039Z,56.70
2018-02-15T00:27:30.607Z,56.20
2018-02-15T00:29:58.199Z,56.80
2018-02-15T00:32:25.825Z,57.10
2018-02-15T00:34:53.427Z,57.40
2018-02-15T00:37:21.000Z,57.30
2018-02-15T00:39:49.394Z,57.80
2018-02-15T00:42:17.758Z,57.90
2018-02-15T00:44:45.390Z,57.90
2018-02-15T00:47:13.052Z,57.60
2018-02-15T00:49:40.691Z,57.30
2018-02-15T00:52:08.257Z,56.80
2018-02-15T00:54:35.833Z,57.10
2018-02-15T00:57:03.442Z,58.60
2018-02-15T00:59:31.072Z,58.90
2018-02-15T01:01:58.674Z,59.00
2018-02-15T01:04:26.283Z,60.60
2018-02-15T01:06:53.903Z,59.90
2018-02-15T01:09:21.492Z,60.30
2018-02-15T01:11:49.107Z,59.50
2018-02-15T01:14:16.739Z,60.20
2018-02-15T01:16:45.116Z,57.40
2018-02-15T01:19:12.696Z,57.40
2018-02-15T01:21:41.106Z,55.50
2018-02-15T01:24:08.692Z,55.50
2018-02-15T01:26:36.294Z,54.80
2018-02-15T01:29:04.671Z,54.30
2018-02-15T01:31:32.250Z,55.50
2018-02-15T01:33:59.848Z,55.90
2018-02-15T01:36:27.476Z,56.30
2018-02-15T01:38:55.122Z,56.80
2018-02-15T01:41:22.738Z,57.20
2018-02-15T01:43:50.349Z,57.60
2018-02-15T01:46:17.895Z,58.40
2018-02-15T01:48:45.538Z,58.20
2018-02-15T01:51:13.893Z,58.60
2018-02-15T01:53:41.506Z,58.60
2018-02-15T01:56:19.105Z,58.70
2018-02-15T01:58:46.722Z,59.40
2018-02-15T02:01:14.343Z,59.10
2018-02-15T02:03:41.959Z,59.10
2018-02-15T02:06:10.322Z,59.10
2018-02-15T02:08:37.907Z,59.00
2018-02-15T02:11:05.525Z,59.40
2018-02-15T02:13:33.154Z,59.50
2018-02-15T02:16:00.791Z,59.80
2018-02-15T02:18:29.114Z,58.70
2018-02-15T02:20:56.711Z,58.60
2018-02-15T02:23:25.090Z,57.90
2018-02-15T02:25:53.456Z,57.80
2018-02-15T02:28:21.062Z,57.70
2018-02-15T02:30:48.634Z,57.70
2018-02-15T02:33:16.262Z,57.80
2018-02-15T02:35:43.876Z,57.70
2018-02-15T02:38:11.482Z,58.10
2018-02-15T02:40:39.094Z,58.20
2018-02-15T02:43:06.706Z,58.60
2018-02-15T02:45:34.341Z,58.70
2018-02-15T02:48:01.905Z,58.70
2018-02-15T02:50:29.523Z,56.70
2018-02-15T02:52:57.107Z,55.60
2018-02-15T02:55:24.687Z,54.40
2018-02-15T02:57:52.327Z,53.70
2018-02-15T03:00:19.934Z,52.80
2018-02-15T03:02:47.556Z,53.60
2018-02-15T03:05:15.186Z,55.30
2018-02-15T03:07:42.762Z,55.90
2018-02-15T03:10:10.359Z,56.10
2018-02-15T03:12:38.739Z,57.10
2018-02-15T03:15:07.143Z,57.30
2018-02-15T03:17:34.778Z,57.30
2018-02-15T03:20:03.209Z,57.80
2018-02-15T03:22:30.835Z,57.80
2018-02-15T03:24:58.460Z,57.70
2018-02-15T03:27:26.061Z,57.60
2018-02-15T03:29:53.646Z,58.00
2018-02-15T03:32:21.220Z,57.40
2018-02-15T03:34:48.872Z,57.60
2018-02-15T03:37:16.528Z,58.40
2018-02-15T03:39:44.164Z,58.00
2018-02-15T03:42:11.779Z,57.70
2018-02-15T03:44:42.682Z,56.80
2018-02-15T03:47:10.242Z,56.60
2018-02-15T03:49:37.806Z,57.00
2018-02-15T03:52:05.451Z,57.50
2018-02-15T03:54:33.057Z,57.00
2018-02-15T03:57:00.676Z,56.60
2018-02-15T03:59:28.314Z,54.80
2018-02-15T04:01:55.893Z,53.40
2018-02-15T04:04:23.551Z,55.10
2018-02-15T04:06:51.134Z,55.70
2018-02-15T04:09:18.717Z,55.50
2018-02-15T04:11:46.331Z,55.70
2018-02-15T04:14:13.974Z,56.90
2018-02-15T04:16:41.561Z,58.20
2018-02-15T04:19:09.171Z,58.70
2018-02-15T04:21:36.776Z,58.80
2018-02-15T04:24:04.394Z,58.30
2018-02-15T04:26:32.028Z,57.80
2018-02-15T04:28:59.658Z,57.50
2018-02-15T04:31:27.251Z,58.40
2018-02-15T04:33:54.893Z,56.50
2018-02-15T04:36:22.526Z,52.40
2018-02-15T04:38:50.131Z,55.10
2018-02-15T04:41:17.707Z,57.10
2018-02-15T04:43:45.318Z,58.40
2018-02-15T04:46:12.884Z,58.80
2018-02-15T04:48:40.498Z,59.50
2018-02-15T04:51:08.110Z,59.40
2018-02-15T04:53:35.739Z,59.60
2018-02-15T04:56:04.127Z,59.40
2018-02-15T04:58:31.705Z,59.30
2018-02-15T05:00:59.316Z,59.40
2018-02-15T05:03:26.971Z,59.90
2018-02-15T05:05:54.579Z,59.70
2018-02-15T05:08:22.178Z,60.60
2018-02-15T05:10:49.772Z,61.00
2018-02-15T05:13:18.098Z,61.40
2018-02-15T05:15:45.674Z,61.40
2018-02-15T05:18:13.271Z,61.40
2018-02-15T05:20:41.633Z,61.50
2018-02-15T05:23:09.232Z,61.40
2018-02-15T05:25:36.812Z,62.30
2018-02-15T05:28:16.654Z,62.10
2018-02-15T05:30:45.023Z,62.70
2018-02-15T05:33:12.674Z,62.70
2018-02-15T05:35:40.297Z,63.50
2018-02-15T05:38:07.873Z,62.80
2018-02-15T05:40:36.237Z,62.40
2018-02-15T05:43:03.865Z,62.20
2018-02-15T05:45:31.430Z,61.70
2018-02-15T05:47:59.006Z,61.80
2018-02-15T05:50:26.647Z,62.20
2018-02-15T05:52:54.210Z,62.40
2018-02-15T05:55:21.782Z,61.80
2018-02-15T05:57:49.408Z,62.20
2018-02-15T06:00:16.974Z,61.90
2018-02-15T06:02:44.575Z,62.00
2018-02-15T06:05:12.183Z,62.60
2018-02-15T06:07:39.811Z,62.20
2018-02-15T06:10:08.178Z,62.90
2018-02-15T06:12:36.555Z,62.50
2018-02-15T06:15:04.948Z,60.50
2018-02-15T06:17:33.339Z,60.00
2018-02-15T06:20:00.976Z,59.90
2018-02-15T06:22:29.368Z,60.20
2018-02-15T06:24:57.796Z,60.10
2018-02-15T06:27:25.423Z,60.10
2018-02-15T06:29:53.059Z,60.20
2018-02-15T06:32:20.676Z,60.10
2018-02-15T06:34:48.304Z,59.10
2018-02-15T06:37:15.928Z,59.60
2018-02-15T06:39:43.578Z,60.30
2018-02-15T06:42:11.198Z,61.00
2018-02-15T06:44:38.814Z,62.00
2018-02-15T06:47:06.457Z,62.00
2018-02-15T06:49:34.092Z,62.20
2018-02-15T06:52:01.713Z,62.10
2018-02-15T06:54:30.107Z,61.60
2018-02-15T06:56:57.759Z,61.60
2018-02-15T06:59:26.115Z,62.10
2018-02-15T07:01:54.372Z,62.10
2018-02-15T07:04:22.028Z,61.90
2018-02-15T07:06:49.665Z,61.60
2018-02-15T07:09:17.300Z,61.10
2018-02-15T07:11:44.943Z,58.30
2018-02-15T07:14:13.368Z,58.20
2018-02-15T07:16:41.011Z,58.10
2018-02-15T07:19:08.647Z,57.60
2018-02-15T07:21:37.036Z,57.20
2018-02-15T07:24:05.437Z,57.30
2018-02-15T07:26:33.088Z,57.20
2018-02-15T07:29:00.722Z,57.00
2018-02-15T07:31:29.116Z,57.20
2018-02-15T07:33:56.766Z,56.60
2018-02-15T07:36:25.205Z,56.40
2018-02-15T07:38:52.795Z,56.30
2018-02-15T07:41:20.415Z,56.50
2018-02-15T07:43:48.069Z,56.80
2018-02-15T07:46:15.705Z,56.30
2018-02-15T07:48:43.342Z,56.70
2018-02-15T07:51:10.946Z,57.00
2018-02-15T07:53:38.566Z,58.20
2018-02-15T07:56:06.963Z,58.50
2018-02-15T07:58:35.355Z,60.60
2018-02-15T08:01:03.000Z,60.60
2018-02-15T08:03:31.380Z,62.10
2018-02-15T08:05:59.828Z,63.40
2018-02-15T08:08:27.487Z,63.40
2018-02-15T08:10:55.112Z,63.70
2018-02-15T08:13:22.750Z,63.30
2018-02-15T08:15:50.385Z,63.00
2018-02-15T08:18:18.029Z,62.50
2018-02-15T08:20:45.654Z,63.50
2018-02-15T08:23:13.290Z,61.50
2018-02-15T08:25:41.653Z,65.20
2018-02-15T08:28:10.045Z,65.70
2018-02-15T08:30:38.425Z,66.20
2018-02-15T08:33:06.067Z,66.20
2018-02-15T08:35:33.708Z,67.80
2018-02-15T08:38:01.357Z,69.10
2018-02-15T08:40:28.999Z,69.70
2018-02-15T08:42:56.594Z,70.40
2018-02-15T08:45:24.235Z,72.30
2018-02-15T08:47:51.887Z,73.30
2018-02-15T08:50:19.522Z,74.00
2018-02-15T08:52:47.110Z,75.00
2018-02-15T08:55:14.743Z,76.60
2018-02-15T08:57:42.393Z,76.60
2018-02-15T09:00:10.796Z,76.40
2018-02-15T09:02:38.440Z,76.40
2018-02-15T09:05:06.065Z,75.90
2018-02-15T09:07:33.693Z,76.40
2018-02-15T09:10:01.334Z,75.70
2018-02-15T09:12:28.962Z,74.00
2018-02-15T09:14:57.389Z,73.00
2018-02-15T09:17:25.016Z,72.90
2018-02-15T09:19:53.420Z,71.90
2018-02-15T09:22:21.061Z,71.90
2018-02-15T09:24:49.435Z,74.30
2018-02-15T09:27:17.075Z,74.20
2018-02-15T09:29:44.684Z,73.80
2018-02-15T09:32:12.329Z,74.10
2018-02-15T09:34:39.932Z,74.30
2018-02-15T09:37:07.601Z,74.40
2018-02-15T09:39:35.233Z,74.00
2018-02-15T09:42:02.848Z,74.90
2018-02-15T09:44:30.482Z,74.50
2018-02-15T09:46:58.123Z,74.20
2018-02-15T09:49:25.762Z,74.50
2018-02-15T09:51:53.385Z,74.50
2018-02-15T09:54:21.035Z,74.70
2018-02-15T09:56:48.667Z,74.60
2018-02-15T09:59:16.312Z,75.00
2018-02-15T10:01:43.963Z,75.10
2018-02-15T10:04:11.588Z,76.20
2018-02-15T10:06:39.219Z,74.60
2018-02-15T10:09:06.872Z,76.40
2018-02-15T10:11:34.496Z,75.90
2018-02-15T10:14:02.892Z,76.80
2018-02-15T10:16:30.555Z,76.70
2018-02-15T10:18:58.168Z,77.40
2018-02-15T10:21:25.825Z,78.60
2018-02-15T10:23:53.437Z,78.80
2018-02-15T10:26:21.110Z,77.60
2018-02-15T10:28:48.730Z,77.00
2018-02-15T10:31:17.128Z,76.40
2018-02-15T10:33:44.748Z,75.90
2018-02-15T10:36:12.385Z,73.70
2018-02-15T10:38:40.015Z,72.20
2018-02-15T10:41:07.650Z,70.10
2018-02-15T10:43:35.297Z,70.60
2018-02-15T10:46:02.921Z,70.00
2018-02-15T10:48:30.522Z,71.60
2018-02-15T10:50:58.204Z,73.60
2018-02-15T10:53:25.826Z,74.50
2018-02-15T10:55:53.451Z,73.30
2018-02-15T10:58:21.107Z,73.30
2018-02-15T11:00:54.504Z,74.30
2018-02-15T11:03:27.828Z,73.00
2018-02-15T11:06:00.475Z,75.00
2018-02-15T11:08:30.182Z,75.20
2018-02-15T11:10:57.860Z,75.80
2018-02-15T11:13:25.443Z,77.80
2018-02-15T11:15:53.068Z,78.50
2018-02-15T11:18:20.703Z,78.70
2018-02-15T11:20:48.321Z,78.20
2018-02-15T11:23:15.945Z,77.90
2018-02-15T11:25:43.622Z,78.90
2018-02-15T11:28:11.227Z,79.60
2018-02-15T11:30:38.833Z,80.00
2018-02-15T11:33:06.453Z,79.70
2018-02-15T11:35:34.091Z,78.90
2018-02-15T11:38:01.742Z,79.30
2018-02-15T11:40:29.365Z,79.80
2018-02-15T11:42:57.010Z,80.00
2018-02-15T11:45:25.423Z,79.10
2018-02-15T11:47:53.045Z,79.00
2018-02-15T11:50:20.682Z,78.40
2018-02-15T11:52:48.317Z,78.70
2018-02-15T11:55:15.939Z,78.00
2018-02-15T11:57:44.330Z,78.80
2018-02-15T12:00:12.720Z,78.10
2018-02-15T12:02:40.366Z,78.10
2018-02-15T12:05:08.761Z,79.90
2018-02-15T12:07:36.381Z,79.80
2018-02-15T12:10:03.996Z,79.50
2018-02-15T12:12:31.625Z,80.20
2018-02-15T12:14:59.992Z,81.60
2018-02-15T12:17:28.383Z,81.10
2018-02-15T12:19:56.021Z,81.10
2018-02-15T12:22:23.631Z,80.80
2018-02-15T12:24:51.256Z,81.90
2018-02-15T12:27:19.669Z,81.80
2018-02-15T12:29:47.313Z,81.70
2018-02-15T12:32:14.871Z,83.20
2018-02-15T12:34:42.488Z,84.00
2018-02-15T12:37:10.131Z,83.40
2018-02-15T12:39:37.763Z,84.40
2018-02-15T12:42:05.428Z,85.00
2018-02-15T12:44:33.034Z,84.80
2018-02-15T12:47:00.674Z,86.10
2018-02-15T12:49:28.912Z,86.40
2018-02-15T12:51:56.589Z,86.50
2018-02-15T12:54:24.224Z,86.60
2018-02-15T12:56:51.867Z,86.10
2018-02-15T12:59:19.500Z,86.30
2018-02-15T13:01:47.134Z,86.40
2018-02-15T13:04:24.513Z,86.20
2018-02-15T13:06:52.154Z,86.60
2018-02-15T13:09:20.503Z,85.00
2018-02-15T13:11:48.120Z,85.00
2018-02-15T13:14:15.772Z,85.40
2018-02-15T13:16:55.126Z,85.20
2018-02-15T13:19:34.572Z,84.70
2018-02-15T13:22:03.768Z,84.40
2018-02-15T13:24:31.411Z,84.00
2018-02-15T13:26:59.041Z,83.80
2018-02-15T13:29:27.450Z,84.10
2018-02-15T13:31:55.803Z,84.10
2018-02-15T13:34:23.449Z,83.70
2018-02-15T13:36:51.093Z,84.30
2018-02-15T13:39:18.721Z,84.80
2018-02-15T13:41:46.376Z,85.90
2018-02-15T13:44:14.043Z,85.80
2018-02-15T13:46:41.672Z,85.40
2018-02-15T13:49:10.075Z,85.20
2018-02-15T13:51:37.705Z,85.20
2018-02-15T13:54:06.136Z,85.80
2018-02-15T13:56:33.776Z,85.70
2018-02-15T13:59:01.396Z,85.70
2018-02-15T14:01:29.048Z,86.00
2018-02-15T14:03:56.712Z,85.60
2018-02-15T14:06:24.328Z,85.90
2018-02-15T14:08:51.964Z,85.90
2018-02-15T14:11:20.344Z,87.20
2018-02-15T14:13:47.943Z,87.20
2018-02-15T14:16:15.569Z,88.00
2018-02-15T14:18:43.217Z,87.70
2018-02-15T14:21:11.596Z,88.50
2018-02-15T14:23:39.983Z,89.00
2018-02-15T14:26:08.346Z,89.80
2018-02-15T14:28:36.744Z,90.20
2018-02-15T14:31:05.127Z,90.00
2018-02-15T14:33:32.742Z,89.90
2018-02-15T14:36:00.389Z,90.00
2018-02-15T14:38:28.035Z,90.10
2018-02-15T14:40:55.682Z,90.30
2018-02-15T14:43:23.327Z,90.40
2018-02-15T14:45:50.956Z,90.30
2018-02-15T14:48:18.588Z,90.40
2018-02-15T14:50:46.239Z,90.60
2018-02-15T14:53:13.856Z,90.60
2018-02-15T14:55:42.235Z,90.80
2018-02-15T14:58:10.635Z,90.90
2018-02-15T15:00:44.363Z,90.90
2018-02-15T15:03:12.754Z,90.90
2018-02-15T15:05:40.368Z,90.90
2018-02-15T15:08:08.002Z,90.80
2018-02-15T15:10:37.315Z,91.00
2018-02-15T15:13:05.719Z,91.00
2018-02-15T15:15:33.306Z,91.00
2018-02-15T15:18:00.952Z,91.00
2018-02-15T15:20:28.596Z,91.10
2018-02-15T15:22:57.917Z,91.60
2018-02-15T15:25:25.535Z,91.50
2018-02-15T15:27:57.273Z,91.60
2018-02-15T15:30:24.924Z,91.40
2018-02-15T15:32:52.578Z,92.00
2018-02-15T15:35:20.233Z,91.90
2018-02-15T15:37:47.861Z,92.00
2018-02-15T15:40:15.509Z,91.90
2018-02-15T15:42:43.896Z,92.20
2018-02-15T15:45:12.325Z,92.30
2018-02-15T15:47:39.933Z,92.30
2018-02-15T15:50:08.343Z,92.40
2018-02-15T15:52:35.956Z,92.40
2018-02-15T15:55:03.577Z,92.40
2018-02-15T15:57:31.177Z,92.40
2018-02-15T15:59:59.571Z,92.40
2018-02-15T16:02:28.027Z,92.40
2018-02-15T16:04:55.682Z,92.40
2018-02-15T16:07:29.768Z,92.40
2018-02-15T16:09:58.171Z,92.40
2018-02-15T16:12:25.814Z,92.40
2018-02-15T16:14:53.449Z,92.40
2018-02-15T16:17:21.076Z,92.40
2018-02-15T16:19:49.495Z,92.40
2018-02-15T16:22:17.183Z,92.40
2018-02-15T16:24:44.826Z,92.40
2018-02-15T16:27:12.458Z,92.40
2018-02-15T16:29:40.120Z,92.40
2018-02-15T16:32:07.777Z,92.60
2018-02-15T16:34:35.396Z,92.70
2018-02-15T16:37:03.041Z,92.70
2018-02-15T16:39:30.659Z,92.70
2018-02-15T16:41:59.069Z,92.90
2018-02-15T16:44:33.072Z,92.80
2018-02-15T16:47:00.693Z,92.80
2018-02-15T16:49:28.320Z,92.90
2018-02-15T16:51:55.939Z,93.00
2018-02-15T16:54:23.550Z,93.10
2018-02-15T16:56:51.225Z,93.30
2018-02-15T16:59:18.868Z,93.50
2018-02-15T17:01:46.523Z,93.40
2018-02-15T17:04:16.761Z,93.40
2018-02-15T17:06:44.420Z,93.40
2018-02-15T17:09:12.076Z,93.60
2018-02-15T17:11:39.668Z,93.60
2018-02-15T17:14:08.076Z,93.80
2018-02-15T17:16:35.699Z,93.80
2018-02-15T17:19:04.141Z,93.60
2018-02-15T17:21:32.608Z,93.60
2018-02-15T17:24:00.256Z,93.60
2018-02-15T17:26:31.495Z,93.60
2018-02-15T17:28:59.107Z,93.50
2018-02-15T17:31:26.744Z,93.50
2018-02-15T17:33:54.371Z,93.50
2018-02-15T17:36:21.992Z,93.40
2018-02-15T17:38:49.616Z,93.50
2018-02-15T17:41:17.267Z,93.70
2018-02-15T17:43:44.914Z,93.90
2018-02-15T17:46:12.540Z,94.20
2018-02-15T17:48:40.184Z,94.60
2018-02-15T17:51:07.803Z,94.90
2018-02-15T17:53:35.444Z,95.20
2018-02-15T17:56:03.864Z,95.50
2018-02-15T17:58:31.521Z,95.50
2018-02-15T18:00:59.145Z,95.50
2018-02-15T18:03:27.585Z,95.50
2018-02-15T18:05:55.224Z,95.50
2018-02-15T18:08:22.856Z,95.80
2018-02-15T18:10:54.410Z,96.10
2018-02-15T18:13:22.807Z,96.10
2018-02-15T18:15:50.428Z,96.10
2018-02-15T18:18:18.059Z,95.90
2018-02-15T18:20:45.649Z,95.60
2018-02-15T18:26:17.493Z,95.30
2018-02-15T18:28:45.117Z,95.20
2018-02-15T18:31:12.743Z,95.20
2018-02-15T18:33:40.401Z,95.10
2018-02-15T18:36:08.014Z,95.20
2018-02-15T18:38:35.652Z,95.20
2018-02-15T18:41:24.353Z,95.40
2018-02-15T18:43:51.996Z,95.40
2018-02-15T18:46:19.621Z,95.40
2018-02-15T18:48:48.024Z,95.30
2018-02-15T18:51:15.685Z,95.30
2018-02-15T18:53:43.305Z,95.20
2018-02-15T18:56:10.949Z,95.20
2018-02-15T18:58:38.597Z,95.10
2018-02-15T19:01:10.209Z,95.00
2018-02-15T19:03:37.809Z,94.90
2018-02-15T19:06:05.423Z,94.90
2018-02-15T19:08:33.871Z,94.90
2018-02-15T19:11:01.516Z,94.80
2018-02-15T19:13:29.113Z,94.80
2018-02-15T19:15:56.736Z,94.70
2018-02-15T19:18:31.599Z,94.70
2018-02-15T19:20:59.255Z,94.70
2018-02-15T19:23:26.876Z,94.80
2018-02-15T19:25:54.551Z,94.80
2018-02-15T19:28:22.185Z,94.80
2018-02-15T19:30:49.847Z,94.80
2018-02-15T19:33:17.441Z,94.80
2018-02-15T19:35:45.111Z,94.90
2018-02-15T19:38:12.727Z,94.90
2018-02-15T19:40:40.365Z,94.90
2018-02-15T19:43:08.798Z,95.00
2018-02-15T19:45:36.417Z,95.00
2018-02-15T19:48:04.821Z,94.90
2018-02-15T19:50:32.472Z,94.80
2018-02-15T19:53:00.086Z,94.80
2018-02-15T19:55:27.754Z,94.80
2018-02-15T19:57:55.378Z,94.80
2018-02-15T20:00:23.064Z,94.80
2018-02-15T20:02:50.683Z,94.70
2018-02-15T20:05:18.327Z,94.60
2018-02-15T20:07:46.000Z,94.70
2018-02-15T20:10:14.375Z,94.60
2018-02-15T20:12:41.980Z,94.60
2018-02-15T20:15:09.600Z,94.50
2018-02-15T20:17:37.223Z,94.60
2018-02-15T20:20:25.537Z,94.70
2018-02-15T20:22:53.207Z,94.80
2018-02-15T20:25:20.850Z,94.90
2018-02-15T20:27:54.054Z,95.00
2018-02-15T20:30:21.698Z,95.10
2018-02-15T20:32:49.354Z,95.10
2018-02-15T20:35:16.975Z,95.10
2018-02-15T20:37:50.956Z,95.30
2018-02-15T20:40:24.177Z,95.30
2018-02-15T20:42:52.596Z,95.20
2018-02-15T20:45:20.227Z,95.50
2018-02-15T20:47:48.634Z,95.10
2018-02-15T20:50:22.761Z,95.10
2018-02-15T20:52:56.047Z,95.10
2018-02-15T20:55:29.340Z,95.10
2018-02-15T20:57:56.987Z,95.10
2018-02-15T21:00:24.599Z,95.30
2018-02-15T21:02:52.232Z,95.40
2018-02-15T21:05:19.898Z,95.50
2018-02-15T21:07:47.551Z,95.50
2018-02-15T21:10:15.174Z,95.50
2018-02-15T21:12:43.591Z,95.50
2018-02-15T21:15:14.764Z,95.50
2018-02-15T21:17:42.439Z,95.50
2018-02-15T21:20:10.062Z,95.50
2018-02-15T21:22:37.684Z,95.40
2018-02-15T21:25:06.074Z,95.20
2018-02-15T21:27:33.706Z,95.20
2018-02-15T21:30:01.364Z,95.10
2018-02-15T21:32:29.778Z,95.00
2018-02-15T21:34:57.393Z,95.00
2018-02-15T21:37:25.025Z,95.00
2018-02-15T21:39:52.675Z,95.00
2018-02-15T21:42:20.312Z,95.10
2018-02-15T21:44:47.952Z,95.20
2018-02-15T21:47:15.609Z,95.20
2018-02-15T21:49:43.258Z,95.20
2018-02-15T21:52:10.928Z,95.20
2018-02-15T21:54:38.548Z,95.20
2018-02-15T21:57:06.245Z,95.20
2018-02-15T21:59:33.892Z,95.10
2018-02-15T22:02:01.514Z,95.20
2018-02-15T22:04:29.127Z,95.20
2018-02-15T22:06:56.772Z,95.20
2018-02-15T22:09:24.412Z,95.30
2018-02-15T22:11:52.036Z,95.50
2018-02-15T22:14:20.440Z,95.60
2018-02-15T22:16:48.098Z,95.60
2018-02-15T22:19:15.756Z,95.70
2018-02-15T22:21:43.400Z,95.70
2018-02-15T22:24:11.768Z,95.80
2018-02-15T22:26:39.383Z,95.80
2018-02-15T22:29:07.013Z,96.10
2018-02-15T22:31:34.608Z,95.80
2018-02-15T22:34:02.254Z,95.80
2018-02-15T22:36:29.828Z,95.80
2018-02-15T22:38:57.396Z,95.80
2018-02-15T22:41:25.031Z,95.90
2018-02-15T22:43:52.639Z,96.10
2018-02-15T22:46:20.255Z,96.30
2018-02-15T22:48:47.886Z,96.40
2018-02-15T22:51:16.255Z,96.50
2018-02-15T22:53:43.849Z,96.40
2018-02-15T22:56:11.442Z,96.40
2018-02-15T22:58:39.036Z,96.30
2018-02-15T23:01:07.403Z,96.30
2018-02-15T23:03:35.023Z,96.30
2018-02-15T23:06:02.588Z,96.20
2018-02-15T23:08:30.191Z,96.10
2018-02-15T23:10:58.543Z,96.20
2018-02-15T23:13:26.109Z,96.10
2018-02-15T23:15:53.744Z,96.00
2018-02-15T23:18:21.352Z,96.00
2018-02-15T23:20:48.986Z,96.00
2018-02-15T23:23:16.559Z,96.10
2018-02-15T23:25:44.170Z,96.10
2018-02-15T23:28:11.751Z,96.10
2018-02-15T23:30:39.363Z,96.10
2018-02-15T23:33:07.679Z,96.10
2018-02-15T23:35:35.252Z,96.00
2018-02-15T23:38:02.827Z,96.00
2018-02-15T23:40:30.434Z,95.90
2018-02-15T23:42:58.003Z,96.00
2018-02-15T23:45:25.559Z,96.00
2018-02-15T23:47:53.163Z,96.00
2018-02-15T23:50:20.735Z,96.00
2018-02-15T23:52:48.316Z,95.90
2018-02-15T23:55:16.698Z,96.10
2018-02-15T23:57:45.103Z,96.10
